Etusivu
METAR-TAF:

METAR-TAF

Lentoasemat :

Tupelo Regional Airport (C.D. Lemons Field)

Tupelo, Mississippi, Yhdysvallat

Leveyspiiri: 34-16-05N, Pituuspiiri: 088-46-12W, korkeus merenpinnasta: 106 m

Tämänhetkinen sää

Tämä raportti tehtiin 1 tunti ja 6 minuuttia sitten, kello 05.53 UTC
tyyntä
Lämpötila 23°C
Kosteus 78%
Ilmanpaine 1019 hPa
Näkyvyys: 16.1 km
selkeää

METAR: KTUP 260553Z AUTO 00000KT 10SM CLR 23/19 A3009 RMK AO2 SLP186 T02280194 10317 20222 403440206 50001 $

Aika: 01:59 (06:59 UTC)

Sääennuste

Tämä raportti tehtiin 1 tunti ja 39 minuuttia sitten, kello 05.20 UTC
Ennuste voimassa 26. päivästä klo 06 UTC - 27. päivään klo 06 UTC
Tuuli kn pohjoisesta
Näkyvyys: 10 km
selkeää
From 26. päivästä klo 1800 UTC
Tuuli 8 kn lännestä/lounaasta
Näkyvyys: 10 km
selkeää
From 27. päivästä klo 0000 UTC
Tuuli kn pohjoisesta
Näkyvyys: 10 km
selkeää

TAF: KTUP 260520Z 2606/2706 00000KT P6SM SKC FM261800 24008KT P6SM SKC FM270000 00000KT P6SM SKC

Säähavainnot ja -ennusteet yli 4000 lentoasemalta (METAR- ja TAF-raportit).

Käytössä olevat sääasemat on merkitty karttaan keltaisilla ja punaisilla pisteillä.

Aseta hiiri pisteen päälle nähdäksesi sääaseman nimen.

Klikkaa sitten nähdäksesi säähavainnot ja -ennusteet.

Kartan vaihtaminen: klikkaa mustalla rastilla varustettuja vihreitä pisteitä, niin voit zoomata sisään; viivalla varustettua vihreää pistettä, niin voit zoomata ulos tai vihreitä nuolia, niin pääset viereisille kartoille.


METAR-TAF: